Paoli, Oklahoma
Current Conditions -  °F | °C
As of 3:35 AM on Friday 24 Oct 2014 (Local Time) from KPVJ Reporting Station
Clear Clear  
Wind Chill: 58°   Ceiling: Unl
Heat Index: 58°   Visibility: 10mi
Dew Point: 55°   Wind: 5mph
Humidity: 88%   Direction: 140°SE
Pressure: 30.1"   Gusts: NA
Location:  34.83°N, 97.26°W
Report Text: KPVJ 240835Z AUTO 14004KT 10SM CLR 15/13 A3010 RMK AO2 T01470127
Loading
Personal Weather Stations






























Interactive Weather Map
Tropical Storm Tracking
New forecast layout! Learn more

10-Day Weather Forecast

Advertisements
Track Severe Weather on mobile